sensor_id;sensor_type;location;lat;lon;timestamp;temperature;humidity
27741;DHT22;15134;48.768;9.184;2022-08-14T00:00:14;21.30;83.20
27741;DHT22;15134;48.768;9.184;2022-08-14T00:02:40;21.10;83.90
27741;DHT22;15134;48.768;9.184;2022-08-14T00:05:11;21.00;84.20
27741;DHT22;15134;48.768;9.184;2022-08-14T00:07:38;21.00;84.50
27741;DHT22;15134;48.768;9.184;2022-08-14T00:10:06;21.00;84.40
27741;DHT22;15134;48.768;9.184;2022-08-14T00:12:35;21.10;84.30
27741;DHT22;15134;48.768;9.184;2022-08-14T00:15:04;21.10;84.50
27741;DHT22;15134;48.768;9.184;2022-08-14T00:17:31;21.10;84.50
27741;DHT22;15134;48.768;9.184;2022-08-14T00:19:56;21.10;84.40
27741;DHT22;15134;48.768;9.184;2022-08-14T00:22:22;21.10;84.10
27741;DHT22;15134;48.768;9.184;2022-08-14T00:24:48;21.10;83.80
27741;DHT22;15134;48.768;9.184;2022-08-14T00:27:14;21.20;83.50
27741;DHT22;15134;48.768;9.184;2022-08-14T00:29:40;21.20;83.80
27741;DHT22;15134;48.768;9.184;2022-08-14T00:32:07;21.10;83.90
27741;DHT22;15134;48.768;9.184;2022-08-14T00:34:33;21.10;84.10
27741;DHT22;15134;48.768;9.184;2022-08-14T00:36:58;20.90;84.60
27741;DHT22;15134;48.768;9.184;2022-08-14T00:39:24;20.80;84.90
27741;DHT22;15134;48.768;9.184;2022-08-14T00:41:50;20.80;84.80
27741;DHT22;15134;48.768;9.184;2022-08-14T00:44:16;20.90;84.70
27741;DHT22;15134;48.768;9.184;2022-08-14T00:46:42;20.90;84.70
27741;DHT22;15134;48.768;9.184;2022-08-14T00:49:08;20.80;85.20
27741;DHT22;15134;48.768;9.184;2022-08-14T00:51:36;20.90;85.20
27741;DHT22;15134;48.768;9.184;2022-08-14T00:54:07;20.80;84.90
27741;DHT22;15134;48.768;9.184;2022-08-14T00:56:32;20.80;85.40
27741;DHT22;15134;48.768;9.184;2022-08-14T00:58:58;20.70;85.80
27741;DHT22;15134;48.768;9.184;2022-08-14T01:01:24;20.70;85.80
27741;DHT22;15134;48.768;9.184;2022-08-14T01:03:52;20.70;85.80
27741;DHT22;15134;48.768;9.184;2022-08-14T01:06:17;20.70;85.90
27741;DHT22;15134;48.768;9.184;2022-08-14T01:08:43;20.60;86.20
27741;DHT22;15134;48.768;9.184;2022-08-14T01:11:11;20.50;86.60
27741;DHT22;15134;48.768;9.184;2022-08-14T01:13:44;20.50;86.80
27741;DHT22;15134;48.768;9.184;2022-08-14T01:16:14;20.50;87.00
27741;DHT22;15134;48.768;9.184;2022-08-14T01:18:40;20.40;87.30
27741;DHT22;15134;48.768;9.184;2022-08-14T01:21:36;20.40;87.60
27741;DHT22;15134;48.768;9.184;2022-08-14T01:24:05;20.40;87.90
27741;DHT22;15134;48.768;9.184;2022-08-14T01:26:35;20.40;87.70
27741;DHT22;15134;48.768;9.184;2022-08-14T01:29:04;20.40;87.50
27741;DHT22;15134;48.768;9.184;2022-08-14T01:31:32;20.40;87.30
27741;DHT22;15134;48.768;9.184;2022-08-14T01:34:03;20.40;87.60
27741;DHT22;15134;48.768;9.184;2022-08-14T01:36:30;20.50;87.50
27741;DHT22;15134;48.768;9.184;2022-08-14T01:39:09;20.40;87.70
27741;DHT22;15134;48.768;9.184;2022-08-14T01:41:35;20.40;87.80
27741;DHT22;15134;48.768;9.184;2022-08-14T01:44:07;20.40;87.80
27741;DHT22;15134;48.768;9.184;2022-08-14T01:46:39;20.30;88.50
27741;DHT22;15134;48.768;9.184;2022-08-14T01:49:09;20.10;89.00
27741;DHT22;15134;48.768;9.184;2022-08-14T01:51:36;20.10;88.80
27741;DHT22;15134;48.768;9.184;2022-08-14T01:54:15;20.10;88.70
27741;DHT22;15134;48.768;9.184;2022-08-14T01:56:45;20.00;89.10
27741;DHT22;15134;48.768;9.184;2022-08-14T01:59:21;19.90;89.70
27741;DHT22;15134;48.768;9.184;2022-08-14T02:01:55;19.80;89.90
27741;DHT22;15134;48.768;9.184;2022-08-14T02:04:23;19.90;89.80
27741;DHT22;15134;48.768;9.184;2022-08-14T02:06:49;20.00;89.50
27741;DHT22;15134;48.768;9.184;2022-08-14T02:09:16;20.00;89.50
27741;DHT22;15134;48.768;9.184;2022-08-14T02:11:42;20.10;89.20
27741;DHT22;15134;48.768;9.184;2022-08-14T02:14:10;20.10;89.30
27741;DHT22;15134;48.768;9.184;2022-08-14T02:16:39;20.10;89.30
27741;DHT22;15134;48.768;9.184;2022-08-14T02:19:11;20.10;89.20
27741;DHT22;15134;48.768;9.184;2022-08-14T02:21:39;20.10;89.40
27741;DHT22;15134;48.768;9.184;2022-08-14T02:24:06;20.00;89.20
27741;DHT22;15134;48.768;9.184;2022-08-14T02:26:35;20.00;89.40
27741;DHT22;15134;48.768;9.184;2022-08-14T02:29:07;19.90;89.80
27741;DHT22;15134;48.768;9.184;2022-08-14T02:31:36;19.80;90.00
27741;DHT22;15134;48.768;9.184;2022-08-14T02:34:07;19.70;90.20
27741;DHT22;15134;48.768;9.184;2022-08-14T02:36:39;19.50;90.60
27741;DHT22;15134;48.768;9.184;2022-08-14T02:39:07;19.40;90.90
27741;DHT22;15134;48.768;9.184;2022-08-14T02:41:34;19.40;91.00
27741;DHT22;15134;48.768;9.184;2022-08-14T02:44:01;19.40;90.90
27741;DHT22;15134;48.768;9.184;2022-08-14T02:46:27;19.40;90.90
27741;DHT22;15134;48.768;9.184;2022-08-14T02:48:56;19.40;91.00
27741;DHT22;15134;48.768;9.184;2022-08-14T02:51:22;19.50;90.90
27741;DHT22;15134;48.768;9.184;2022-08-14T02:53:48;19.50;90.90
27741;DHT22;15134;48.768;9.184;2022-08-14T02:56:16;19.60;90.70
27741;DHT22;15134;48.768;9.184;2022-08-14T02:58:46;19.60;90.90
27741;DHT22;15134;48.768;9.184;2022-08-14T03:01:14;19.60;90.80
27741;DHT22;15134;48.768;9.184;2022-08-14T03:03:41;19.60;90.70
27741;DHT22;15134;48.768;9.184;2022-08-14T03:06:09;19.60;90.60
27741;DHT22;15134;48.768;9.184;2022-08-14T03:08:36;19.60;90.50
27741;DHT22;15134;48.768;9.184;2022-08-14T03:11:07;19.60;90.60
27741;DHT22;15134;48.768;9.184;2022-08-14T03:13:39;19.60;90.80
27741;DHT22;15134;48.768;9.184;2022-08-14T03:16:07;19.40;91.10
27741;DHT22;15134;48.768;9.184;2022-08-14T03:18:33;19.30;91.20
27741;DHT22;15134;48.768;9.184;2022-08-14T03:21:00;19.30;91.30
27741;DHT22;15134;48.768;9.184;2022-08-14T03:23:27;19.40;91.30
27741;DHT22;15134;48.768;9.184;2022-08-14T03:26:00;19.40;91.20
27741;DHT22;15134;48.768;9.184;2022-08-14T03:28:28;19.40;91.00
27741;DHT22;15134;48.768;9.184;2022-08-14T03:30:55;19.50;91.00
27741;DHT22;15134;48.768;9.184;2022-08-14T03:33:22;19.40;91.10
27741;DHT22;15134;48.768;9.184;2022-08-14T03:35:48;19.30;91.30
27741;DHT22;15134;48.768;9.184;2022-08-14T03:38:16;19.30;91.30
27741;DHT22;15134;48.768;9.184;2022-08-14T03:40:43;19.20;91.90
27741;DHT22;15134;48.768;9.184;2022-08-14T03:43:10;19.20;91.70
27741;DHT22;15134;48.768;9.184;2022-08-14T03:45:37;19.20;91.70
27741;DHT22;15134;48.768;9.184;2022-08-14T03:48:12;19.20;91.70
27741;DHT22;15134;48.768;9.184;2022-08-14T03:50:45;19.30;91.60
27741;DHT22;15134;48.768;9.184;2022-08-14T03:53:12;19.30;91.60
27741;DHT22;15134;48.768;9.184;2022-08-14T03:55:39;19.30;91.60
27741;DHT22;15134;48.768;9.184;2022-08-14T03:58:06;19.30;91.70
27741;DHT22;15134;48.768;9.184;2022-08-14T04:00:33;19.20;91.40
27741;DHT22;15134;48.768;9.184;2022-08-14T04:03:01;19.20;91.50
27741;DHT22;15134;48.768;9.184;2022-08-14T04:05:27;19.30;91.60
27741;DHT22;15134;48.768;9.184;2022-08-14T04:07:53;19.30;91.60
27741;DHT22;15134;48.768;9.184;2022-08-14T04:10:19;19.30;91.40
27741;DHT22;15134;48.768;9.184;2022-08-14T04:12:44;19.20;91.90
27741;DHT22;15134;48.768;9.184;2022-08-14T04:15:10;19.20;91.70
27741;DHT22;15134;48.768;9.184;2022-08-14T04:17:36;19.20;91.80
27741;DHT22;15134;48.768;9.184;2022-08-14T04:20:04;19.20;91.90
27741;DHT22;15134;48.768;9.184;2022-08-14T04:22:32;19.10;92.00
27741;DHT22;15134;48.768;9.184;2022-08-14T04:24:58;19.00;92.10
27741;DHT22;15134;48.768;9.184;2022-08-14T04:27:24;19.00;92.30
27741;DHT22;15134;48.768;9.184;2022-08-14T04:29:52;19.10;92.10
27741;DHT22;15134;48.768;9.184;2022-08-14T04:32:19;19.20;92.10
27741;DHT22;15134;48.768;9.184;2022-08-14T04:34:47;19.30;92.00
27741;DHT22;15134;48.768;9.184;2022-08-14T04:37:12;19.40;91.80
27741;DHT22;15134;48.768;9.184;2022-08-14T04:39:57;19.30;91.70
27741;DHT22;15134;48.768;9.184;2022-08-14T04:42:41;19.40;91.80
27741;DHT22;15134;48.768;9.184;2022-08-14T04:45:27;19.40;91.60
27741;DHT22;15134;48.768;9.184;2022-08-14T04:48:14;19.60;91.40
27741;DHT22;15134;48.768;9.184;2022-08-14T04:50:50;19.60;91.40
27741;DHT22;15134;48.768;9.184;2022-08-14T04:53:26;19.70;91.40
27741;DHT22;15134;48.768;9.184;2022-08-14T04:55:53;19.80;91.20
27741;DHT22;15134;48.768;9.184;2022-08-14T04:58:28;19.80;91.30
27741;DHT22;15134;48.768;9.184;2022-08-14T05:00:56;19.80;91.20
27741;DHT22;15134;48.768;9.184;2022-08-14T05:03:25;20.00;91.30
27741;DHT22;15134;48.768;9.184;2022-08-14T05:05:54;20.10;91.20
27741;DHT22;15134;48.768;9.184;2022-08-14T05:08:21;20.20;91.00
27741;DHT22;15134;48.768;9.184;2022-08-14T05:10:55;20.20;90.90
27741;DHT22;15134;48.768;9.184;2022-08-14T05:13:23;20.20;91.00
27741;DHT22;15134;48.768;9.184;2022-08-14T05:15:50;20.30;91.10
27741;DHT22;15134;48.768;9.184;2022-08-14T05:18:21;20.30;91.00
27741;DHT22;15134;48.768;9.184;2022-08-14T05:20:54;20.40;91.00
27741;DHT22;15134;48.768;9.184;2022-08-14T05:23:24;20.30;91.30
27741;DHT22;15134;48.768;9.184;2022-08-14T05:25:52;20.30;91.50
27741;DHT22;15134;48.768;9.184;2022-08-14T05:28:32;20.30;91.50
27741;DHT22;15134;48.768;9.184;2022-08-14T05:31:01;20.40;91.40
27741;DHT22;15134;48.768;9.184;2022-08-14T05:33:30;20.50;91.10
27741;DHT22;15134;48.768;9.184;2022-08-14T05:35:59;20.50;91.00
27741;DHT22;15134;48.768;9.184;2022-08-14T05:38:32;20.60;91.00
27741;DHT22;15134;48.768;9.184;2022-08-14T05:41:07;20.60;90.80
27741;DHT22;15134;48.768;9.184;2022-08-14T05:43:34;20.70;91.00
27741;DHT22;15134;48.768;9.184;2022-08-14T05:46:00;20.70;90.80
27741;DHT22;15134;48.768;9.184;2022-08-14T05:48:27;20.60;91.00
27741;DHT22;15134;48.768;9.184;2022-08-14T05:50:53;20.60;91.00
27741;DHT22;15134;48.768;9.184;2022-08-14T05:53:24;20.90;90.70
27741;DHT22;15134;48.768;9.184;2022-08-14T05:55:50;21.20;90.20
27741;DHT22;15134;48.768;9.184;2022-08-14T05:58:18;21.40;90.00
27741;DHT22;15134;48.768;9.184;2022-08-14T06:00:44;21.50;90.00
27741;DHT22;15134;48.768;9.184;2022-08-14T06:03:13;21.60;89.50
27741;DHT22;15134;48.768;9.184;2022-08-14T06:05:43;21.70;89.00
27741;DHT22;15134;48.768;9.184;2022-08-14T06:08:29;21.70;88.60
27741;DHT22;15134;48.768;9.184;2022-08-14T06:10:58;21.60;88.50
27741;DHT22;15134;48.768;9.184;2022-08-14T06:13:28;21.50;88.50
27741;DHT22;15134;48.768;9.184;2022-08-14T06:15:54;21.50;88.70
27741;DHT22;15134;48.768;9.184;2022-08-14T06:18:20;21.50;88.80
27741;DHT22;15134;48.768;9.184;2022-08-14T06:20:45;21.60;89.20
27741;DHT22;15134;48.768;9.184;2022-08-14T06:23:11;21.80;88.50
27741;DHT22;15134;48.768;9.184;2022-08-14T06:25:37;22.20;87.80
27741;DHT22;15134;48.768;9.184;2022-08-14T06:28:03;22.70;86.40
27741;DHT22;15134;48.768;9.184;2022-08-14T06:30:29;23.30;84.70
27741;DHT22;15134;48.768;9.184;2022-08-14T06:32:55;24.00;83.00
27741;DHT22;15134;48.768;9.184;2022-08-14T06:35:21;24.60;81.70
27741;DHT22;15134;48.768;9.184;2022-08-14T06:37:51;25.20;79.60
27741;DHT22;15134;48.768;9.184;2022-08-14T06:40:20;25.70;78.50
27741;DHT22;15134;48.768;9.184;2022-08-14T06:42:45;26.20;77.20
27741;DHT22;15134;48.768;9.184;2022-08-14T06:45:11;26.70;76.00
27741;DHT22;15134;48.768;9.184;2022-08-14T06:47:38;27.20;74.90
27741;DHT22;15134;48.768;9.184;2022-08-14T06:50:05;27.70;73.30
27741;DHT22;15134;48.768;9.184;2022-08-14T06:52:31;28.30;72.10
27741;DHT22;15134;48.768;9.184;2022-08-14T06:54:57;28.80;70.30
27741;DHT22;15134;48.768;9.184;2022-08-14T06:57:24;29.30;68.70
27741;DHT22;15134;48.768;9.184;2022-08-14T06:59:49;29.90;67.80
27741;DHT22;15134;48.768;9.184;2022-08-14T07:02:15;30.90;65.60
27741;DHT22;15134;48.768;9.184;2022-08-14T07:05:00;31.70;64.20
27741;DHT22;15134;48.768;9.184;2022-08-14T07:07:44;33.00;61.50
27741;DHT22;15134;48.768;9.184;2022-08-14T07:10:11;33.60;60.10
27741;DHT22;15134;48.768;9.184;2022-08-14T07:12:37;34.30;59.00
27741;DHT22;15134;48.768;9.184;2022-08-14T07:15:04;34.90;58.60
27741;DHT22;15134;48.768;9.184;2022-08-14T07:17:30;35.40;58.40
27741;DHT22;15134;48.768;9.184;2022-08-14T07:19:56;34.80;57.60
27741;DHT22;15134;48.768;9.184;2022-08-14T07:22:22;34.40;58.00
27741;DHT22;15134;48.768;9.184;2022-08-14T07:24:47;34.40;58.10
27741;DHT22;15134;48.768;9.184;2022-08-14T07:27:13;34.60;58.00
27741;DHT22;15134;48.768;9.184;2022-08-14T07:29:39;36.10;58.00
27741;DHT22;15134;48.768;9.184;2022-08-14T07:32:04;38.50;55.40
27741;DHT22;15134;48.768;9.184;2022-08-14T07:34:30;40.20;53.50
27741;DHT22;15134;48.768;9.184;2022-08-14T07:36:56;41.10;53.00
27741;DHT22;15134;48.768;9.184;2022-08-14T07:39:22;42.10;51.90
27741;DHT22;15134;48.768;9.184;2022-08-14T07:41:47;42.50;50.90
27741;DHT22;15134;48.768;9.184;2022-08-14T07:44:14;43.20;49.90
27741;DHT22;15134;48.768;9.184;2022-08-14T07:46:39;43.00;49.50
27741;DHT22;15134;48.768;9.184;2022-08-14T07:49:06;43.60;49.30
27741;DHT22;15134;48.768;9.184;2022-08-14T07:51:33;44.10;48.60
27741;DHT22;15134;48.768;9.184;2022-08-14T07:53:59;44.90;48.20
27741;DHT22;15134;48.768;9.184;2022-08-14T07:56:24;45.40;47.30
27741;DHT22;15134;48.768;9.184;2022-08-14T07:58:50;46.10;45.90
27741;DHT22;15134;48.768;9.184;2022-08-14T08:01:17;46.20;44.20
27741;DHT22;15134;48.768;9.184;2022-08-14T08:03:45;46.60;44.60
27741;DHT22;15134;48.768;9.184;2022-08-14T08:06:11;47.00;44.50
27741;DHT22;15134;48.768;9.184;2022-08-14T08:08:36;47.20;43.40
27741;DHT22;15134;48.768;9.184;2022-08-14T08:11:02;47.30;42.90
27741;DHT22;15134;48.768;9.184;2022-08-14T08:13:32;47.10;42.80
27741;DHT22;15134;48.768;9.184;2022-08-14T08:15:58;47.20;42.60
27741;DHT22;15134;48.768;9.184;2022-08-14T08:18:25;47.30;42.70
27741;DHT22;15134;48.768;9.184;2022-08-14T08:20:53;46.70;42.00
27741;DHT22;15134;48.768;9.184;2022-08-14T08:23:20;45.90;42.50
27741;DHT22;15134;48.768;9.184;2022-08-14T08:25:48;45.70;42.50
27741;DHT22;15134;48.768;9.184;2022-08-14T08:28:15;45.80;42.40
27741;DHT22;15134;48.768;9.184;2022-08-14T08:31:16;46.00;42.10
27741;DHT22;15134;48.768;9.184;2022-08-14T08:33:37;46.40;42.10
27741;DHT22;15134;48.768;9.184;2022-08-14T08:36:05;47.00;41.70
27741;DHT22;15134;48.768;9.184;2022-08-14T08:38:32;47.20;40.80
27741;DHT22;15134;48.768;9.184;2022-08-14T08:40:59;47.10;40.30
27741;DHT22;15134;48.768;9.184;2022-08-14T08:43:33;46.90;40.90
27741;DHT22;15134;48.768;9.184;2022-08-14T08:46:10;46.60;40.70
27741;DHT22;15134;48.768;9.184;2022-08-14T08:48:49;46.60;40.80
27741;DHT22;15134;48.768;9.184;2022-08-14T08:51:33;46.60;40.30
27741;DHT22;15134;48.768;9.184;2022-08-14T08:54:08;46.70;40.10
27741;DHT22;15134;48.768;9.184;2022-08-14T08:56:43;46.60;39.50
27741;DHT22;15134;48.768;9.184;2022-08-14T08:59:30;46.30;39.80
27741;DHT22;15134;48.768;9.184;2022-08-14T09:02:04;46.20;39.80
27741;DHT22;15134;48.768;9.184;2022-08-14T09:04:39;45.70;39.90
27741;DHT22;15134;48.768;9.184;2022-08-14T09:07:10;45.30;40.50
27741;DHT22;15134;48.768;9.184;2022-08-14T09:09:36;44.80;40.70
27741;DHT22;15134;48.768;9.184;2022-08-14T09:12:18;44.90;41.10
27741;DHT22;15134;48.768;9.184;2022-08-14T09:14:44;44.80;40.90
27741;DHT22;15134;48.768;9.184;2022-08-14T09:17:13;44.20;42.00
27741;DHT22;15134;48.768;9.184;2022-08-14T09:19:40;44.70;42.00
27741;DHT22;15134;48.768;9.184;2022-08-14T09:22:06;44.80;41.80
27741;DHT22;15134;48.768;9.184;2022-08-14T09:24:32;45.30;41.20
27741;DHT22;15134;48.768;9.184;2022-08-14T09:26:58;45.60;41.00
27741;DHT22;15134;48.768;9.184;2022-08-14T09:29:24;45.40;41.10
27741;DHT22;15134;48.768;9.184;2022-08-14T09:31:55;45.20;41.60
27741;DHT22;15134;48.768;9.184;2022-08-14T09:50:22;37.60;48.40
27741;DHT22;15134;48.768;9.184;2022-08-14T09:52:54;36.80;49.10
27741;DHT22;15134;48.768;9.184;2022-08-14T09:55:23;36.10;49.30
27741;DHT22;15134;48.768;9.184;2022-08-14T09:57:51;35.50;50.20
27741;DHT22;15134;48.768;9.184;2022-08-14T10:00:18;35.10;51.40
27741;DHT22;15134;48.768;9.184;2022-08-14T10:02:56;34.80;51.70
27741;DHT22;15134;48.768;9.184;2022-08-14T10:05:37;34.60;52.40
27741;DHT22;15134;48.768;9.184;2022-08-14T10:08:04;34.00;52.40
27741;DHT22;15134;48.768;9.184;2022-08-14T10:10:40;33.60;52.80
27741;DHT22;15134;48.768;9.184;2022-08-14T10:13:21;33.20;54.30
27741;DHT22;15134;48.768;9.184;2022-08-14T10:15:47;33.10;53.90
27741;DHT22;15134;48.768;9.184;2022-08-14T10:18:16;32.90;53.70
27741;DHT22;15134;48.768;9.184;2022-08-14T10:23:14;32.50;54.90
27741;DHT22;15134;48.768;9.184;2022-08-14T10:25:42;32.20;55.00
27741;DHT22;15134;48.768;9.184;2022-08-14T10:28:10;32.00;55.60
27741;DHT22;15134;48.768;9.184;2022-08-14T10:30:41;31.70;55.30
27741;DHT22;15134;48.768;9.184;2022-08-14T10:33:06;31.30;55.80
27741;DHT22;15134;48.768;9.184;2022-08-14T10:35:42;31.20;56.60
27741;DHT22;15134;48.768;9.184;2022-08-14T10:38:08;31.10;55.90
27741;DHT22;15134;48.768;9.184;2022-08-14T10:40:35;31.00;56.30
27741;DHT22;15134;48.768;9.184;2022-08-14T10:43:02;30.80;57.20
27741;DHT22;15134;48.768;9.184;2022-08-14T10:45:33;30.60;56.90
27741;DHT22;15134;48.768;9.184;2022-08-14T10:48:12;30.50;57.20
27741;DHT22;15134;48.768;9.184;2022-08-14T10:50:41;30.50;57.40
27741;DHT22;15134;48.768;9.184;2022-08-14T10:53:13;30.70;57.60
27741;DHT22;15134;48.768;9.184;2022-08-14T10:55:40;30.80;57.20
27741;DHT22;15134;48.768;9.184;2022-08-14T10:58:08;31.00;57.60
27741;DHT22;15134;48.768;9.184;2022-08-14T11:00:36;31.00;56.70
27741;DHT22;15134;48.768;9.184;2022-08-14T11:03:08;30.80;56.80
27741;DHT22;15134;48.768;9.184;2022-08-14T11:05:41;30.80;57.00
27741;DHT22;15134;48.768;9.184;2022-08-14T11:08:09;30.70;57.70
27741;DHT22;15134;48.768;9.184;2022-08-14T11:10:55;30.70;56.70
27741;DHT22;15134;48.768;9.184;2022-08-14T11:13:26;30.80;57.00
27741;DHT22;15134;48.768;9.184;2022-08-14T11:15:54;30.80;57.10
27741;DHT22;15134;48.768;9.184;2022-08-14T11:18:21;30.80;56.90
27741;DHT22;15134;48.768;9.184;2022-08-14T11:20:50;30.90;56.40
27741;DHT22;15134;48.768;9.184;2022-08-14T11:23:20;30.70;56.00
27741;DHT22;15134;48.768;9.184;2022-08-14T11:25:47;30.70;56.40
27741;DHT22;15134;48.768;9.184;2022-08-14T11:28:15;30.70;56.90
27741;DHT22;15134;48.768;9.184;2022-08-14T11:30:42;30.70;56.70
27741;DHT22;15134;48.768;9.184;2022-08-14T11:33:10;30.70;56.90
27741;DHT22;15134;48.768;9.184;2022-08-14T11:35:36;30.60;56.70
27741;DHT22;15134;48.768;9.184;2022-08-14T11:38:05;30.60;57.60
27741;DHT22;15134;48.768;9.184;2022-08-14T11:40:34;30.60;56.90
27741;DHT22;15134;48.768;9.184;2022-08-14T11:43:05;30.60;56.40
27741;DHT22;15134;48.768;9.184;2022-08-14T11:45:44;30.60;56.50
27741;DHT22;15134;48.768;9.184;2022-08-14T11:48:16;30.50;56.90
27741;DHT22;15134;48.768;9.184;2022-08-14T11:50:42;30.50;56.80
27741;DHT22;15134;48.768;9.184;2022-08-14T11:55:44;30.40;56.80
27741;DHT22;15134;48.768;9.184;2022-08-14T11:58:11;30.30;56.70
27741;DHT22;15134;48.768;9.184;2022-08-14T12:00:50;30.20;57.20
27741;DHT22;15134;48.768;9.184;2022-08-14T12:03:18;30.10;57.40
27741;DHT22;15134;48.768;9.184;2022-08-14T12:05:44;30.30;57.60
27741;DHT22;15134;48.768;9.184;2022-08-14T12:08:11;30.30;57.00
27741;DHT22;15134;48.768;9.184;2022-08-14T12:10:40;30.30;57.10
27741;DHT22;15134;48.768;9.184;2022-08-14T12:13:19;30.30;56.60
27741;DHT22;15134;48.768;9.184;2022-08-14T12:15:56;30.30;56.00
27741;DHT22;15134;48.768;9.184;2022-08-14T12:18:34;30.30;55.40
27741;DHT22;15134;48.768;9.184;2022-08-14T12:21:11;30.30;55.60
27741;DHT22;15134;48.768;9.184;2022-08-14T12:23:37;30.30;55.30
27741;DHT22;15134;48.768;9.184;2022-08-14T12:26:08;30.30;55.40
27741;DHT22;15134;48.768;9.184;2022-08-14T12:28:35;30.30;55.80
27741;DHT22;15134;48.768;9.184;2022-08-14T12:31:18;30.20;56.10
27741;DHT22;15134;48.768;9.184;2022-08-14T12:34:02;30.20;56.40
27741;DHT22;15134;48.768;9.184;2022-08-14T12:36:28;30.20;56.10
27741;DHT22;15134;48.768;9.184;2022-08-14T12:38:56;30.20;55.80
27741;DHT22;15134;48.768;9.184;2022-08-14T12:41:24;30.10;54.60
27741;DHT22;15134;48.768;9.184;2022-08-14T12:43:54;30.10;54.90
27741;DHT22;15134;48.768;9.184;2022-08-14T12:46:40;30.00;54.30
27741;DHT22;15134;48.768;9.184;2022-08-14T12:49:14;30.10;54.20
27741;DHT22;15134;48.768;9.184;2022-08-14T12:51:55;30.00;53.90
27741;DHT22;15134;48.768;9.184;2022-08-14T12:54:21;29.90;54.20
27741;DHT22;15134;48.768;9.184;2022-08-14T12:56:47;29.80;54.50
27741;DHT22;15134;48.768;9.184;2022-08-14T12:59:13;29.80;53.80
27741;DHT22;15134;48.768;9.184;2022-08-14T13:01:40;29.80;54.50
27741;DHT22;15134;48.768;9.184;2022-08-14T13:04:11;29.80;54.10
27741;DHT22;15134;48.768;9.184;2022-08-14T13:06:39;29.80;54.20
27741;DHT22;15134;48.768;9.184;2022-08-14T13:09:07;29.80;54.10
27741;DHT22;15134;48.768;9.184;2022-08-14T13:11:44;29.90;53.20
27741;DHT22;15134;48.768;9.184;2022-08-14T13:14:15;29.80;53.00
27741;DHT22;15134;48.768;9.184;2022-08-14T13:16:42;29.80;53.50
27741;DHT22;15134;48.768;9.184;2022-08-14T13:19:11;29.70;53.50
27741;DHT22;15134;48.768;9.184;2022-08-14T13:21:49;29.70;53.30
27741;DHT22;15134;48.768;9.184;2022-08-14T13:24:18;29.70;53.30
27741;DHT22;15134;48.768;9.184;2022-08-14T13:26:49;29.80;53.50
27741;DHT22;15134;48.768;9.184;2022-08-14T13:29:26;29.70;53.40
27741;DHT22;15134;48.768;9.184;2022-08-14T13:31:54;29.80;53.80
27741;DHT22;15134;48.768;9.184;2022-08-14T13:34:22;29.80;53.60
27741;DHT22;15134;48.768;9.184;2022-08-14T13:36:48;29.80;54.00
27741;DHT22;15134;48.768;9.184;2022-08-14T13:39:19;29.80;53.60
27741;DHT22;15134;48.768;9.184;2022-08-14T13:41:46;29.80;52.20
27741;DHT22;15134;48.768;9.184;2022-08-14T13:44:13;29.80;52.10
27741;DHT22;15134;48.768;9.184;2022-08-14T13:46:40;29.70;51.60
27741;DHT22;15134;48.768;9.184;2022-08-14T13:49:06;29.70;51.70
27741;DHT22;15134;48.768;9.184;2022-08-14T13:51:38;29.70;51.80
27741;DHT22;15134;48.768;9.184;2022-08-14T13:54:06;29.70;51.90
27741;DHT22;15134;48.768;9.184;2022-08-14T13:56:37;29.70;52.10
27741;DHT22;15134;48.768;9.184;2022-08-14T13:59:04;29.70;51.20
27741;DHT22;15134;48.768;9.184;2022-08-14T14:01:31;29.80;51.10
27741;DHT22;15134;48.768;9.184;2022-08-14T14:03:59;29.70;51.70
27741;DHT22;15134;48.768;9.184;2022-08-14T14:06:27;29.70;51.50
27741;DHT22;15134;48.768;9.184;2022-08-14T14:08:55;29.70;52.10
27741;DHT22;15134;48.768;9.184;2022-08-14T14:11:21;29.70;51.70
27741;DHT22;15134;48.768;9.184;2022-08-14T14:13:55;29.70;52.30
27741;DHT22;15134;48.768;9.184;2022-08-14T14:16:22;29.80;52.30
27741;DHT22;15134;48.768;9.184;2022-08-14T14:18:50;29.90;52.30
27741;DHT22;15134;48.768;9.184;2022-08-14T14:21:23;29.90;52.30
27741;DHT22;15134;48.768;9.184;2022-08-14T14:23:49;29.90;52.40
27741;DHT22;15134;48.768;9.184;2022-08-14T14:26:18;29.90;52.60
27741;DHT22;15134;48.768;9.184;2022-08-14T14:28:47;29.90;53.00
27741;DHT22;15134;48.768;9.184;2022-08-14T14:31:23;29.80;52.70
27741;DHT22;15134;48.768;9.184;2022-08-14T14:33:51;29.70;52.80
27741;DHT22;15134;48.768;9.184;2022-08-14T14:36:21;29.80;52.70
27741;DHT22;15134;48.768;9.184;2022-08-14T14:38:53;29.80;53.20
27741;DHT22;15134;48.768;9.184;2022-08-14T14:41:25;29.80;53.10
27741;DHT22;15134;48.768;9.184;2022-08-14T14:43:52;29.80;53.40
27741;DHT22;15134;48.768;9.184;2022-08-14T14:46:19;29.90;52.50
27741;DHT22;15134;48.768;9.184;2022-08-14T14:48:46;29.90;52.60
27741;DHT22;15134;48.768;9.184;2022-08-14T14:51:13;29.90;52.70
27741;DHT22;15134;48.768;9.184;2022-08-14T14:53:40;29.90;53.00
27741;DHT22;15134;48.768;9.184;2022-08-14T14:56:07;29.90;53.00
27741;DHT22;15134;48.768;9.184;2022-08-14T14:58:36;29.80;52.50
27741;DHT22;15134;48.768;9.184;2022-08-14T15:01:04;29.70;52.40
27741;DHT22;15134;48.768;9.184;2022-08-14T15:03:32;29.70;52.70
27741;DHT22;15134;48.768;9.184;2022-08-14T15:05:58;29.70;53.00
27741;DHT22;15134;48.768;9.184;2022-08-14T15:08:24;29.60;52.10
27741;DHT22;15134;48.768;9.184;2022-08-14T15:10:50;29.70;51.70
27741;DHT22;15134;48.768;9.184;2022-08-14T15:13:18;29.70;51.80
27741;DHT22;15134;48.768;9.184;2022-08-14T15:15:44;29.70;51.40
27741;DHT22;15134;48.768;9.184;2022-08-14T15:18:10;29.80;51.90
27741;DHT22;15134;48.768;9.184;2022-08-14T15:20:35;29.80;52.40
27741;DHT22;15134;48.768;9.184;2022-08-14T15:23:01;29.70;52.70
27741;DHT22;15134;48.768;9.184;2022-08-14T15:25:27;29.70;52.30
27741;DHT22;15134;48.768;9.184;2022-08-14T15:28:00;29.70;52.50
27741;DHT22;15134;48.768;9.184;2022-08-14T15:30:27;29.70;52.50
27741;DHT22;15134;48.768;9.184;2022-08-14T15:32:53;29.60;52.20
27741;DHT22;15134;48.768;9.184;2022-08-14T15:35:22;29.70;52.80
27741;DHT22;15134;48.768;9.184;2022-08-14T15:37:49;29.70;52.70
27741;DHT22;15134;48.768;9.184;2022-08-14T15:40:14;29.70;53.20
27741;DHT22;15134;48.768;9.184;2022-08-14T15:42:43;29.70;53.00
27741;DHT22;15134;48.768;9.184;2022-08-14T15:45:09;29.80;53.00
27741;DHT22;15134;48.768;9.184;2022-08-14T15:47:37;29.80;52.70
27741;DHT22;15134;48.768;9.184;2022-08-14T15:50:07;29.90;52.80
27741;DHT22;15134;48.768;9.184;2022-08-14T15:52:34;30.00;53.20
27741;DHT22;15134;48.768;9.184;2022-08-14T15:55:09;30.00;53.00
27741;DHT22;15134;48.768;9.184;2022-08-14T15:57:36;30.00;53.00
27741;DHT22;15134;48.768;9.184;2022-08-14T16:00:05;30.00;53.10
27741;DHT22;15134;48.768;9.184;2022-08-14T16:02:50;30.00;53.40